createdAt,value
2023-11-22T00:02:28.154Z,-0.09
2023-11-22T00:05:51.351Z,-0.10
2023-11-22T00:09:25.532Z,-0.09
2023-11-22T00:12:59.977Z,-0.08
2023-11-22T00:16:12.877Z,-0.06
2023-11-22T00:19:54.758Z,-0.05
2023-11-22T00:23:21.081Z,-0.07
2023-11-22T00:26:34.210Z,-0.08
2023-11-22T00:30:04.522Z,-0.09
2023-11-22T00:33:43.421Z,-0.09
2023-11-22T00:37:13.131Z,-0.10
2023-11-22T00:40:43.912Z,-0.11
2023-11-22T00:43:52.291Z,-0.12
2023-11-22T00:47:10.231Z,-0.12
2023-11-22T00:50:22.106Z,-0.12
2023-11-22T00:54:01.006Z,-0.13
2023-11-22T00:57:28.223Z,-0.12
2023-11-22T01:00:49.968Z,-0.12
2023-11-22T01:04:30.906Z,-0.14
2023-11-22T01:08:18.849Z,-0.17
2023-11-22T01:11:45.572Z,-0.15
2023-11-22T01:15:09.721Z,-0.14
2023-11-22T01:18:49.687Z,-0.12
2023-11-22T01:22:31.893Z,-0.13
2023-11-22T01:25:37.964Z,-0.17
2023-11-22T01:29:01.388Z,-0.19
2023-11-22T01:32:10.287Z,-0.18
2023-11-22T01:35:41.365Z,-0.16
2023-11-22T01:39:29.893Z,-0.14
2023-11-22T01:43:03.950Z,-0.15
2023-11-22T01:46:38.023Z,-0.16
2023-11-22T01:50:19.571Z,-0.16
2023-11-22T01:53:56.936Z,-0.12
2023-11-22T01:57:13.375Z,-0.11
2023-11-22T02:00:46.954Z,-0.07
2023-11-22T02:04:02.713Z,-0.05
2023-11-22T02:07:27.604Z,-0.06
2023-11-22T02:10:54.471Z,-0.07
2023-11-22T02:13:46.342Z,-0.08
2023-11-22T02:17:01.840Z,-0.10
2023-11-22T02:20:16.700Z,-0.09
2023-11-22T02:23:34.487Z,-0.09
2023-11-22T02:26:38.367Z,-0.10
2023-11-22T02:29:30.618Z,-0.10
2023-11-22T02:32:28.277Z,-0.09
2023-11-22T02:36:10.397Z,-0.08
2023-11-22T02:39:07.762Z,-0.09
2023-11-22T02:42:22.719Z,-0.09
2023-11-22T02:45:32.143Z,-0.09
2023-11-22T02:48:58.609Z,-0.09
2023-11-22T02:52:15.772Z,-0.11
2023-11-22T02:55:34.614Z,-0.12
2023-11-22T02:58:27.317Z,-0.13
2023-11-22T03:01:39.327Z,-0.13
2023-11-22T03:04:36.379Z,-0.13
2023-11-22T03:07:31.575Z,-0.14
2023-11-22T03:10:43.305Z,-0.15
2023-11-22T03:13:49.656Z,-0.16
2023-11-22T03:16:48.426Z,-0.16
2023-11-22T03:19:57.202Z,-0.16
2023-11-22T03:22:44.632Z,-0.15
2023-11-22T03:25:44.376Z,-0.16
2023-11-22T03:28:34.334Z,-0.15
2023-11-22T03:31:48.175Z,-0.13
2023-11-22T03:35:03.116Z,-0.11
2023-11-22T03:38:21.083Z,-0.10
2023-11-22T03:40:54.767Z,-0.09
2023-11-22T03:43:56.636Z,-0.08
2023-11-22T03:47:09.993Z,-0.08
2023-11-22T03:50:18.772Z,-0.09
2023-11-22T03:53:54.211Z,-0.10
2023-11-22T03:57:27.045Z,-0.09
2023-11-22T04:01:04.848Z,-0.08
2023-11-22T04:04:11.404Z,-0.07
2023-11-22T04:07:30.925Z,-0.06
2023-11-22T04:10:37.001Z,-0.08
2023-11-22T04:13:53.258Z,-0.12
2023-11-22T04:17:20.381Z,-0.12
2023-11-22T04:20:10.183Z,-0.12
2023-11-22T04:23:46.363Z,-0.13
2023-11-22T04:27:03.282Z,-0.12
2023-11-22T04:30:18.134Z,-0.13
2023-11-22T04:33:33.360Z,-0.16
2023-11-22T04:36:50.960Z,-0.18
2023-11-22T04:39:50.971Z,-0.18
2023-11-22T04:42:53.420Z,-0.19
2023-11-22T04:45:56.930Z,-0.19
2023-11-22T04:48:39.534Z,-0.19
2023-11-22T04:51:35.790Z,-0.20
2023-11-22T04:54:58.775Z,-0.23
2023-11-22T04:57:41.969Z,-0.24
2023-11-22T05:01:01.156Z,-0.25
2023-11-22T05:04:07.726Z,-0.24
2023-11-22T05:07:04.506Z,-0.24
2023-11-22T05:10:00.821Z,-0.24
2023-11-22T05:13:01.454Z,-0.25
2023-11-22T05:16:29.213Z,-0.25
2023-11-22T05:19:17.376Z,-0.27
2023-11-22T05:22:12.295Z,-0.27
2023-11-22T05:25:17.413Z,-0.27
2023-11-22T05:28:48.500Z,-0.29
2023-11-22T05:31:56.106Z,-0.29
2023-11-22T05:35:14.104Z,-0.28
2023-11-22T05:38:20.021Z,-0.30
2023-11-22T05:41:51.094Z,-0.31
2023-11-22T05:44:32.921Z,-0.31
2023-11-22T05:47:19.809Z,-0.30
2023-11-22T05:49:50.697Z,-0.30
2023-11-22T05:53:13.699Z,-0.30
2023-11-22T05:56:14.348Z,-0.30
2023-11-22T05:59:39.893Z,-0.31
2023-11-22T06:02:41.881Z,-0.33
2023-11-22T06:05:49.945Z,-0.33
2023-11-22T06:09:19.135Z,-0.35
2023-11-22T06:12:29.303Z,-0.35
2023-11-22T06:15:08.948Z,-0.33
2023-11-22T06:18:02.286Z,-0.31
2023-11-22T06:20:32.609Z,-0.30
2023-11-22T06:23:09.804Z,-0.30
2023-11-22T06:26:01.439Z,-0.30
2023-11-22T06:28:39.886Z,-0.30
2023-11-22T06:31:21.179Z,-0.29
2023-11-22T06:33:50.785Z,-0.28
2023-11-22T06:36:21.751Z,-0.28
2023-11-22T06:39:49.986Z,-0.28
2023-11-22T06:42:26.495Z,-0.30
2023-11-22T06:45:20.544Z,-0.29
2023-11-22T06:47:54.281Z,-0.24
2023-11-22T06:50:25.896Z,-0.23
2023-11-22T06:53:27.509Z,-0.20
2023-11-22T06:56:15.989Z,-0.15
2023-11-22T06:59:02.931Z,-0.10
2023-11-22T07:01:34.442Z,-0.07
2023-11-22T07:04:05.395Z,-0.05
2023-11-22T07:06:33.233Z,-0.02
2023-11-22T07:09:01.014Z,0.01
2023-11-22T07:11:42.849Z,0.03
2023-11-22T07:14:30.634Z,0.04
2023-11-22T07:17:12.714Z,0.08
2023-11-22T07:19:48.234Z,0.11
2023-11-22T07:22:23.767Z,0.12
2023-11-22T07:25:26.285Z,0.13
2023-11-22T07:28:03.375Z,0.18
2023-11-22T07:30:34.552Z,0.19
2023-11-22T07:33:27.412Z,0.17
2023-11-22T07:36:06.851Z,0.14
2023-11-22T07:39:20.583Z,0.12
2023-11-22T07:42:01.322Z,0.08
2023-11-22T07:44:38.688Z,0.01
2023-11-22T07:47:27.845Z,-0.09
2023-11-22T07:50:47.870Z,-0.15
2023-11-22T07:53:41.031Z,-0.17
2023-11-22T07:56:47.298Z,-0.18
2023-11-22T08:00:09.045Z,-0.21
2023-11-22T08:02:56.027Z,-0.23
2023-11-22T08:05:47.377Z,-0.27
2023-11-22T08:09:13.548Z,-0.33
2023-11-22T08:12:06.336Z,-0.37
2023-11-22T08:14:39.996Z,-0.42
2023-11-22T08:17:10.652Z,-0.45
2023-11-22T08:19:43.540Z,-0.49
2023-11-22T08:22:14.662Z,-0.50
2023-11-22T08:24:47.645Z,-0.48
2023-11-22T08:27:28.994Z,-0.46
2023-11-22T08:30:23.302Z,-0.45
2023-11-22T08:33:15.736Z,-0.48
2023-11-22T08:35:56.011Z,-0.51
2023-11-22T08:38:34.676Z,-0.55
2023-11-22T08:41:15.454Z,-0.58
2023-11-22T08:48:22.131Z,-0.63
2023-11-22T08:51:08.009Z,-0.65
2023-11-22T08:53:38.649Z,-0.63
2023-11-22T08:56:29.522Z,-0.63
2023-11-22T08:59:13.402Z,-0.65
2023-11-22T09:02:55.032Z,-0.69
2023-11-22T09:06:19.855Z,-0.73
2023-11-22T09:09:42.188Z,-0.79
2023-11-22T09:12:49.154Z,-0.84
2023-11-22T09:16:00.568Z,-0.87
2023-11-22T09:18:55.949Z,-0.87
2023-11-22T09:22:18.831Z,-0.87
2023-11-22T09:25:40.672Z,-0.84
2023-11-22T09:28:39.529Z,-0.83
2023-11-22T09:31:21.462Z,-0.85
2023-11-22T09:33:53.640Z,-0.82
2023-11-22T09:36:27.241Z,-0.83
2023-11-22T09:38:55.410Z,-0.85
2023-11-22T09:41:23.435Z,-0.89
2023-11-22T09:43:51.236Z,-0.92
2023-11-22T09:46:45.198Z,-0.95
2023-11-22T09:49:28.580Z,-0.97
2023-11-22T09:52:04.486Z,-0.99
2023-11-22T09:54:34.874Z,-1.01
2023-11-22T09:57:42.000Z,-1.04
2023-11-22T10:00:38.486Z,-1.09
2023-11-22T10:03:16.551Z,-1.11
2023-11-22T10:06:01.067Z,-1.11
2023-11-22T10:08:31.429Z,-1.14
2023-11-22T10:11:29.337Z,-1.16
2023-11-22T10:14:33.718Z,-1.14
2023-11-22T10:17:21.290Z,-1.10
2023-11-22T10:20:31.827Z,-1.08
2023-11-22T10:23:58.490Z,-1.09
2023-11-22T10:27:01.458Z,-1.10
2023-11-22T10:29:53.629Z,-1.11
2023-11-22T10:32:25.759Z,-1.10
2023-11-22T10:35:49.766Z,-1.14
2023-11-22T10:39:17.517Z,-1.17
2023-11-22T10:42:20.591Z,-1.20
2023-11-22T10:45:30.485Z,-1.21
2023-11-22T10:48:22.133Z,-1.22
2023-11-22T10:51:18.092Z,-1.21
2023-11-22T10:54:05.493Z,-1.22
2023-11-22T10:56:52.777Z,-1.25
2023-11-22T10:59:29.403Z,-1.25
2023-11-22T11:02:07.930Z,-1.24
2023-11-22T11:05:11.220Z,-1.25
2023-11-22T11:08:27.443Z,-1.26
2023-11-22T11:11:47.800Z,-1.25
2023-11-22T11:15:06.820Z,-1.24
2023-11-22T11:18:06.162Z,-1.24
2023-11-22T11:21:40.576Z,-1.24
2023-11-22T11:24:29.238Z,-1.23
2023-11-22T11:27:20.712Z,-1.23
2023-11-22T11:30:11.803Z,-1.25
2023-11-22T11:32:42.911Z,-1.30
2023-11-22T11:35:22.579Z,-1.34
2023-11-22T11:38:10.863Z,-1.37
2023-11-22T11:40:58.508Z,-1.37
2023-11-22T11:43:55.474Z,-1.37
2023-11-22T11:47:20.493Z,-1.37
2023-11-22T11:50:04.910Z,-1.35
2023-11-22T11:52:55.605Z,-1.33
2023-11-22T11:55:50.626Z,-1.34
2023-11-22T11:58:32.950Z,-1.35
2023-11-22T12:01:01.897Z,-1.36
2023-11-22T12:03:37.175Z,-1.38
2023-11-22T12:06:08.306Z,-1.41
2023-11-22T12:13:49.570Z,-1.37
2023-11-22T12:16:51.017Z,-1.34
2023-11-22T12:19:56.258Z,-1.36
2023-11-22T12:22:29.225Z,-1.36
2023-11-22T12:24:57.702Z,-1.38
2023-11-22T12:27:26.215Z,-1.41
2023-11-22T12:29:54.893Z,-1.44
2023-11-22T12:32:26.012Z,-1.48
2023-11-22T12:34:58.606Z,-1.52
2023-11-22T12:38:08.709Z,-1.57
2023-11-22T12:41:11.041Z,-1.62
2023-11-22T12:43:49.021Z,-1.67
2023-11-22T12:46:36.411Z,-1.69
2023-11-22T12:49:07.895Z,-1.68
2023-11-22T12:52:06.762Z,-1.68
2023-11-22T12:55:14.873Z,-1.66
2023-11-22T12:57:46.782Z,-1.63
2023-11-22T13:00:17.797Z,-1.61
2023-11-22T13:03:06.447Z,-1.60
2023-11-22T13:05:35.113Z,-1.62
2023-11-22T13:08:04.994Z,-1.63
2023-11-22T13:10:40.523Z,-1.67
2023-11-22T13:13:29.368Z,-1.71
2023-11-22T13:15:58.815Z,-1.74
2023-11-22T13:18:50.096Z,-1.77
2023-11-22T13:21:23.338Z,-1.78
2023-11-22T13:23:51.574Z,-1.79
2023-11-22T13:26:47.767Z,-1.80
2023-11-22T13:29:17.771Z,-1.82
2023-11-22T13:31:50.418Z,-1.82
2023-11-22T13:34:18.650Z,-1.83
2023-11-22T13:36:47.149Z,-1.84
2023-11-22T13:39:16.448Z,-1.84
2023-11-22T13:41:51.922Z,-1.85
2023-11-22T13:49:19.425Z,-1.92
2023-11-22T13:51:55.651Z,-1.95
2023-11-22T13:54:41.307Z,-1.96
2023-11-22T13:57:21.503Z,-1.97
2023-11-22T14:00:20.318Z,-1.97
2023-11-22T14:03:06.630Z,-1.95
2023-11-22T14:05:55.064Z,-1.96
2023-11-22T14:08:47.146Z,-1.97
2023-11-22T14:11:29.568Z,-1.98
2023-11-22T14:14:01.569Z,-2.01
2023-11-22T14:16:31.439Z,-2.03
2023-11-22T14:18:59.331Z,-2.05
2023-11-22T14:21:26.989Z,-2.10
2023-11-22T14:23:59.496Z,-2.14
2023-11-22T14:27:01.969Z,-2.18
2023-11-22T14:29:38.423Z,-2.21
2023-11-22T14:32:11.625Z,-2.23
2023-11-22T14:35:18.064Z,-2.23
2023-11-22T14:38:19.014Z,-2.22
2023-11-22T14:45:53.765Z,-2.19
2023-11-22T14:48:35.401Z,-2.19
2023-11-22T14:51:11.941Z,-2.21
2023-11-22T15:03:26.010Z,-2.34
2023-11-22T15:06:19.685Z,-2.37
2023-11-22T15:08:58.329Z,-2.41
2023-11-22T15:11:27.189Z,-2.45
2023-11-22T15:14:29.813Z,-2.48
2023-11-22T15:16:57.710Z,-2.50
2023-11-22T15:19:28.812Z,-2.53
2023-11-22T15:22:39.880Z,-2.56
2023-11-22T15:25:19.506Z,-2.57
2023-11-22T15:27:49.804Z,-2.57
2023-11-22T15:35:39.406Z,-2.55
2023-11-22T15:38:36.794Z,-2.55
2023-11-22T15:46:12.862Z,-2.57
2023-11-22T15:49:40.286Z,-2.60
2023-11-22T15:52:44.172Z,-2.60
2023-11-22T15:56:05.618Z,-2.62
2023-11-22T15:59:24.715Z,-2.63
2023-11-22T16:02:25.128Z,-2.64
2023-11-22T16:05:36.760Z,-2.65
2023-11-22T16:08:22.841Z,-2.65
2023-11-22T16:11:23.877Z,-2.64
2023-11-22T16:14:37.938Z,-2.60
2023-11-22T16:18:42.387Z,-2.54
2023-11-22T16:21:45.747Z,-2.48
2023-11-22T16:24:30.684Z,-2.42
2023-11-22T16:27:15.286Z,-2.39
2023-11-22T16:29:48.313Z,-2.36
2023-11-22T16:32:19.290Z,-2.35
2023-11-22T16:35:18.405Z,-2.34
2023-11-22T16:38:04.488Z,-2.35
2023-11-22T16:40:38.187Z,-2.36
2023-11-22T16:43:12.491Z,-2.38
2023-11-22T16:46:45.220Z,-2.41
2023-11-22T16:50:26.399Z,-2.46
2023-11-22T16:54:44.194Z,-2.50
2023-11-22T16:58:07.366Z,-2.52
2023-11-22T17:01:56.194Z,-2.55
2023-11-22T17:05:44.288Z,-2.57
2023-11-22T17:09:37.061Z,-2.58
2023-11-22T17:13:11.691Z,-2.59
2023-11-22T17:16:11.672Z,-2.63
2023-11-22T17:29:00.698Z,-2.73
2023-11-22T17:32:49.401Z,-2.72
2023-11-22T17:36:00.104Z,-2.71
2023-11-22T17:43:41.841Z,-2.65
2023-11-22T17:47:31.166Z,-2.65
2023-11-22T17:50:55.582Z,-2.67
2023-11-22T17:53:59.609Z,-2.68
2023-11-22T17:57:28.371Z,-2.68
2023-11-22T18:01:09.599Z,-2.71
2023-11-22T18:04:19.279Z,-2.75
2023-11-22T18:07:06.990Z,-2.77
2023-11-22T18:10:41.657Z,-2.77
2023-11-22T18:14:07.616Z,-2.78
2023-11-22T18:17:28.532Z,-2.81
2023-11-22T18:20:38.029Z,-2.81
2023-11-22T18:23:59.980Z,-2.83
2023-11-22T18:27:17.730Z,-2.83
2023-11-22T18:29:54.392Z,-2.82
2023-11-22T18:33:18.696Z,-2.83
2023-11-22T18:36:27.942Z,-2.85
2023-11-22T18:40:10.013Z,-2.89
2023-11-22T18:43:25.282Z,-2.94
2023-11-22T18:46:12.030Z,-3.00
2023-11-22T18:49:15.382Z,-3.04
2023-11-22T18:52:12.715Z,-3.05
2023-11-22T18:54:48.910Z,-3.05
2023-11-22T18:57:27.546Z,-3.06
2023-11-22T19:00:00.521Z,-3.09
2023-11-22T19:02:33.867Z,-3.12
2023-11-22T19:05:42.535Z,-3.16
2023-11-22T19:08:35.456Z,-3.18
2023-11-22T19:11:15.116Z,-3.21
2023-11-22T19:14:02.819Z,-3.23
2023-11-22T19:17:33.514Z,-3.25
2023-11-22T19:21:13.001Z,-3.27
2023-11-22T19:24:08.426Z,-3.32
2023-11-22T19:26:59.449Z,-3.34
2023-11-22T19:29:32.405Z,-3.34
2023-11-22T19:32:39.257Z,-3.36
2023-11-22T19:35:34.870Z,-3.39
2023-11-22T19:38:53.413Z,-3.44
2023-11-22T19:42:03.028Z,-3.47
2023-11-22T19:44:59.901Z,-3.49
2023-11-22T19:48:06.437Z,-3.49
2023-11-22T19:50:56.381Z,-3.51
2023-11-22T19:53:30.390Z,-3.54
2023-11-22T19:56:00.590Z,-3.59
2023-11-22T19:58:39.394Z,-3.62
2023-11-22T20:01:14.990Z,-3.62
2023-11-22T20:03:48.653Z,-3.59
2023-11-22T20:06:17.298Z,-3.57
2023-11-22T20:09:21.409Z,-3.55
2023-11-22T20:12:10.721Z,-3.51
2023-11-22T20:15:02.750Z,-3.49
2023-11-22T20:17:36.686Z,-3.48
2023-11-22T20:20:33.459Z,-3.49
2023-11-22T20:23:18.074Z,-3.52
2023-11-22T20:26:04.067Z,-3.58
2023-11-22T20:28:31.768Z,-3.61
2023-11-22T20:31:16.946Z,-3.65
2023-11-22T20:33:49.846Z,-3.66
2023-11-22T20:36:28.920Z,-3.67
2023-11-22T20:48:45.012Z,-3.69
2023-11-22T20:51:50.607Z,-3.71
2023-11-22T20:55:24.992Z,-3.72
2023-11-22T20:58:13.829Z,-3.73
2023-11-22T21:00:54.762Z,-3.75
2023-11-22T21:03:28.474Z,-3.77
2023-11-22T21:06:00.355Z,-3.78
2023-11-22T21:08:47.195Z,-3.80
2023-11-22T21:16:26.853Z,-3.86
2023-11-22T21:19:13.421Z,-3.86
2023-11-22T21:21:41.043Z,-3.87
2023-11-22T21:24:40.044Z,-3.89
2023-11-22T21:27:10.107Z,-3.89
2023-11-22T21:29:37.856Z,-3.87
2023-11-22T21:32:06.100Z,-3.88
2023-11-22T21:34:49.725Z,-3.86
2023-11-22T21:42:16.280Z,-3.83
2023-11-22T21:45:02.210Z,-3.82
2023-11-22T21:47:43.625Z,-3.83
2023-11-22T21:50:14.142Z,-3.83
2023-11-22T21:52:42.012Z,-3.82
2023-11-22T21:55:19.870Z,-3.83
2023-11-22T21:57:48.283Z,-3.85
2023-11-22T22:00:38.025Z,-3.90
2023-11-22T22:03:06.067Z,-3.92
2023-11-22T22:05:34.046Z,-3.93
2023-11-22T22:08:04.881Z,-3.96
2023-11-22T22:10:39.043Z,-3.99
2023-11-22T22:13:11.225Z,-3.99
2023-11-22T22:15:54.536Z,-4.01
2023-11-22T22:18:26.787Z,-4.01
2023-11-22T22:21:25.219Z,-4.02
2023-11-22T22:24:37.514Z,-4.02
2023-11-22T22:27:32.843Z,-4.02
2023-11-22T22:30:03.888Z,-4.02
2023-11-22T22:32:53.460Z,-4.03
2023-11-22T22:35:41.339Z,-4.05
2023-11-22T22:38:20.273Z,-4.06
2023-11-22T22:41:16.423Z,-4.07
2023-11-22T22:43:54.923Z,-4.09
2023-11-22T22:46:59.704Z,-4.08
2023-11-22T22:49:50.037Z,-4.10
2023-11-22T22:52:43.647Z,-4.11
2023-11-22T22:55:33.850Z,-4.12
2023-11-22T22:58:21.998Z,-4.14
2023-11-22T23:00:57.775Z,-4.13
2023-11-22T23:03:52.617Z,-4.14
2023-11-22T23:06:55.978Z,-4.16
2023-11-22T23:10:05.234Z,-4.17
2023-11-22T23:12:57.704Z,-4.18
2023-11-22T23:15:30.335Z,-4.17
2023-11-22T23:19:00.653Z,-4.14
2023-11-22T23:22:04.845Z,-4.12
2023-11-22T23:25:01.929Z,-4.07
2023-11-22T23:27:53.834Z,-4.02
2023-11-22T23:30:42.838Z,-3.97
2023-11-22T23:33:43.847Z,-3.91
2023-11-22T23:36:42.126Z,-3.88
2023-11-22T23:39:52.583Z,-3.90
2023-11-22T23:42:42.681Z,-3.91
2023-11-22T23:45:53.357Z,-3.94
2023-11-22T23:48:56.545Z,-3.99
2023-11-22T23:52:05.504Z,-4.04
2023-11-22T23:55:20.300Z,-4.08
2023-11-22T23:58:32.409Z,-4.10
